Terminal Aerodrome Forecast
Issued by NWS Melbourne, FL

Home | Current Version | Previous Version | Text Only | Print | Product List | Glossary On
Versions: 1 2 3 4 5 6 7 8 9 10 11 12 13 14 15 16 17 18 19
000
FTUS42 KMLB 010538
TAFMLB
TAF
KMLB 010538Z 0106/0206 09011KT P6SM SCT020 OVC030
     FM011000 10006KT 4SM BR BKN005
     FM011400 12010KT P6SM SCT012 BKN020
     FM011800 11012KT P6SM BKN035 PROB30 0118/0121 5SM SHRA BKN025
     FM020000 06003KT P6SM SCT020 BKN080=

USA.gov is the U.S. government's official web portal to all federal, state and local government web resources and services.